Terminal Aerodrome Forecast
Issued by NWS Billings, MT

Home | Current Version | Previous Version | Text Only | Print | Product List | Glossary On
Versions: 1 2 3 4 5 6 7 8 9 10 11 12 13 14 15 16 17 18 19 20 21 22 23 24 25 26 27 28 29
273
FTUS45 KBYZ 132326
TAFBIL
TAF
KBIL 132326Z 1400/1424 30025G40KT P6SM VCSH BKN060
     FM140300 30025G32KT P6SM BKN050
     FM140600 26015KT P6SM BKN050
     FM141100 25011KT P6SM VCSH OVC050
     FM141800 28020G35KT P6SM SCT040 BKN050=

USA.gov is the U.S. government's official web portal to all federal, state and local government web resources and services.